Time;durP1;ratioP1;P1;durP2;ratioP2;P2;SDS_P1;SDS_P2;PMS_P1;PMS_P2;Temp;Humidity;BMP_temperature;BMP_pressure;BME280_temperature;BME280_humidity;BME280_pressure;Samples;Min_cycle;Max_cycle;Signal;HPM_P1;HPM_P2
2022/05/16 00:00:39;;;;;;;40.83;23.55;;;14.50;99.90;;;;;;5045891;28;20572;-54
2022/05/16 00:03:06;;;;;;;35.67;23.00;;;14.60;99.90;;;;;;5047339;28;20159;-56
2022/05/16 00:05:33;;;;;;;35.33;21.52;;;14.50;99.90;;;;;;5046836;28;20140;-55
2022/05/16 00:08:00;;;;;;;39.85;23.33;;;14.50;99.90;;;;;;5047445;28;20136;-53
2022/05/16 00:10:27;;;;;;;40.70;24.88;;;14.40;99.90;;;;;;5047166;28;20049;-55
2022/05/16 00:12:53;;;;;;;35.63;23.00;;;14.40;99.90;;;;;;5047122;28;20045;-55
2022/05/16 00:15:21;;;;;;;43.67;25.88;;;14.50;99.90;;;;;;5046757;28;20145;-54
2022/05/16 00:17:48;;;;;;;34.78;22.20;;;14.40;99.90;;;;;;5047241;28;20068;-54
2022/05/16 00:20:15;;;;;;;33.13;22.08;;;14.40;99.90;;;;;;5046947;28;20076;-52
2022/05/16 00:22:41;;;;;;;37.05;23.17;;;14.40;99.90;;;;;;5047416;28;20136;-51
2022/05/16 00:25:09;;;;;;;36.58;23.60;;;14.30;99.90;;;;;;5046531;28;20128;-53
2022/05/16 00:27:36;;;;;;;34.83;23.17;;;14.30;99.90;;;;;;5040585;28;20080;-58
2022/05/16 00:30:08;;;;;;;33.88;22.52;;;14.20;99.90;;;;;;5046887;28;20132;-55
2022/05/16 00:32:35;;;;;;;32.55;23.15;;;14.20;99.90;;;;;;5038947;28;20044;-55
2022/05/16 00:35:03;;;;;;;37.33;23.15;;;14.20;99.90;;;;;;5045266;28;20036;-54
2022/05/16 00:37:30;;;;;;;39.00;24.27;;;14.30;99.90;;;;;;5046721;28;20076;-55
2022/05/16 00:39:57;;;;;;;32.88;23.50;;;14.30;99.90;;;;;;5046318;28;20049;-57
2022/05/16 00:42:24;;;;;;;41.22;24.58;;;14.30;99.90;;;;;;5045525;28;20080;-54
2022/05/16 00:44:50;;;;;;;38.20;23.52;;;14.30;99.90;;;;;;5046641;28;20041;-54
2022/05/16 00:47:17;;;;;;;31.02;22.42;;;14.20;99.90;;;;;;5046840;28;20077;-52
2022/05/16 00:49:46;;;;;;;37.35;24.40;;;14.30;99.90;;;;;;4697115;28;10000503;-55
2022/05/16 00:52:17;;;;;;;33.60;22.83;;;14.30;99.90;;;;;;5046683;28;20049;-54
2022/05/16 00:54:51;;;;;;;28.90;21.88;;;14.20;99.90;;;;;;5044696;28;20092;-55
2022/05/16 00:57:24;;;;;;;33.30;21.63;;;14.20;99.90;;;;;;5046052;28;20136;-55
2022/05/16 01:00:08;;;;;;;34.45;22.25;;;14.20;99.90;;;;;;5027926;28;20091;-54
2022/05/16 01:05:21;;;;;;;34.22;21.90;;;14.10;99.90;;;;;;5040219;28;19978;-54
2022/05/16 01:07:48;;;;;;;37.38;23.02;;;14.00;99.90;;;;;;5045068;28;20061;-55
2022/05/16 01:10:18;;;;;;;37.08;23.30;;;14.00;99.90;;;;;;5046275;28;20131;-54
2022/05/16 01:12:46;;;;;;;31.23;23.67;;;13.90;99.90;;;;;;5045910;28;20077;-52
2022/05/16 01:15:15;;;;;;;36.60;22.20;;;13.80;99.90;;;;;;5045939;28;20088;-55
2022/05/16 01:17:42;;;;;;;40.35;25.48;;;13.80;99.90;;;;;;5046407;28;20045;-55
2022/05/16 01:20:10;;;;;;;43.38;23.27;;;13.80;99.90;;;;;;5046332;28;20088;-56
2022/05/16 01:22:45;;;;;;;29.08;23.30;;;13.80;99.90;;;;;;5045660;28;20088;-55
2022/05/16 01:25:13;;;;;;;34.40;22.73;;;13.80;99.90;;;;;;5046494;28;20543;-55
2022/05/16 01:27:46;;;;;;;34.42;23.98;;;13.80;99.90;;;;;;5044770;28;20049;-54
2022/05/16 01:30:15;;;;;;;36.58;23.95;;;13.80;99.90;;;;;;5046410;28;20072;-55
2022/05/16 01:32:41;;;;;;;31.25;22.45;;;13.70;99.90;;;;;;5045395;28;20132;-55
2022/05/16 01:35:08;;;;;;;32.58;23.30;;;13.70;99.90;;;;;;5046420;28;20105;-56
2022/05/16 01:40:20;;;;;;;27.02;18.55;;;13.70;99.90;;;;;;5039158;28;20535;-53
2022/05/16 01:42:47;;;;;;;28.02;17.77;;;13.70;99.90;;;;;;5045952;28;20092;-55
2022/05/16 01:45:14;;;;;;;22.30;17.35;;;13.60;99.90;;;;;;5046215;28;20403;-53
2022/05/16 01:47:41;;;;;;;25.10;19.35;;;13.60;99.90;;;;;;5044825;28;20498;-56
2022/05/16 01:50:08;;;;;;;31.27;20.92;;;13.50;99.90;;;;;;5043978;28;20139;-50
2022/05/16 01:52:34;;;;;;;30.83;19.85;;;13.50;99.90;;;;;;5047539;28;20476;-51
2022/05/16 01:55:01;;;;;;;26.63;18.48;;;13.50;99.90;;;;;;5049911;28;20128;-55
2022/05/16 01:57:28;;;;;;;26.65;19.50;;;13.50;99.90;;;;;;5049291;28;20514;-53
2022/05/16 01:59:54;;;;;;;32.40;20.80;;;13.40;99.90;;;;;;5049762;28;20156;-54
2022/05/16 02:02:21;;;;;;;29.30;20.42;;;13.40;99.90;;;;;;5049751;28;20053;-54
2022/05/16 02:04:48;;;;;;;34.45;20.73;;;13.40;99.90;;;;;;5048734;28;20444;-55
2022/05/16 02:07:15;;;;;;;25.02;19.85;;;13.40;99.90;;;;;;5050010;28;20136;-54
2022/05/16 02:09:41;;;;;;;34.80;22.50;;;13.40;99.90;;;;;;5047118;28;20051;-55
2022/05/16 02:12:09;;;;;;;30.90;21.27;;;13.40;99.90;;;;;;5047956;28;20124;-53
2022/05/16 02:14:36;;;;;;;31.83;20.13;;;13.50;99.90;;;;;;5047737;28;20087;-55
2022/05/16 02:17:03;;;;;;;24.90;18.25;;;13.40;99.90;;;;;;5047655;28;20057;-58
2022/05/16 02:19:30;;;;;;;33.85;22.00;;;13.40;99.90;;;;;;5048166;28;20068;-54
2022/05/16 02:24:43;;;;;;;32.75;21.80;;;13.30;99.90;;;;;;5041657;28;20088;-54
2022/05/16 02:27:11;;;;;;;30.35;19.10;;;13.40;99.90;;;;;;5047036;28;20694;-54
2022/05/16 02:29:38;;;;;;;25.33;19.38;;;13.40;99.90;;;;;;5046729;28;20136;-54
2022/05/16 02:32:05;;;;;;;30.02;22.55;;;13.30;99.90;;;;;;5048051;28;20139;-53
2022/05/16 02:34:32;;;;;;;27.95;19.83;;;13.30;99.90;;;;;;5054120;28;20132;-55
2022/05/16 02:36:59;;;;;;;28.10;22.05;;;13.20;99.90;;;;;;5047939;28;20061;-52
2022/05/16 02:39:25;;;;;;;30.63;23.30;;;13.20;99.90;;;;;;5047469;28;20236;-52
2022/05/16 02:41:52;;;;;;;36.63;21.95;;;13.20;99.90;;;;;;5046765;28;20472;-53
2022/05/16 02:44:19;;;;;;;33.65;22.75;;;13.20;99.90;;;;;;5047662;28;20076;-52
2022/05/16 02:46:46;;;;;;;31.77;21.50;;;13.10;99.90;;;;;;5047627;28;20100;-55
2022/05/16 02:49:18;;;;;;;38.72;23.98;;;13.10;99.90;;;;;;5047029;28;20076;-56
2022/05/16 02:51:45;;;;;;;36.35;23.45;;;13.20;99.90;;;;;;5043928;28;20124;-55
2022/05/16 02:54:11;;;;;;;28.42;20.58;;;13.10;99.90;;;;;;5047152;28;20139;-55
2022/05/16 02:56:38;;;;;;;31.08;21.17;;;13.20;99.90;;;;;;5046760;28;20088;-55
2022/05/16 02:59:05;;;;;;;33.78;22.48;;;13.20;99.90;;;;;;5047016;28;20542;-54
2022/05/16 03:01:34;;;;;;;28.75;20.75;;;13.20;99.90;;;;;;5046150;28;20140;-56
2022/05/16 03:04:01;;;;;;;32.47;22.00;;;13.20;99.90;;;;;;5046460;28;20539;-55
2022/05/16 03:06:28;;;;;;;36.55;24.35;;;13.20;99.90;;;;;;5046647;28;20440;-53
2022/05/16 03:08:55;;;;;;;29.75;22.83;;;13.20;99.90;;;;;;5044616;28;20127;-55
2022/05/16 03:11:22;;;;;;;29.88;21.10;;;13.20;99.90;;;;;;5046003;28;20111;-54
2022/05/16 03:13:49;;;;;;;32.92;24.15;;;13.30;99.90;;;;;;5046357;28;20041;-54
2022/05/16 03:16:16;;;;;;;29.27;22.15;;;13.20;99.90;;;;;;5046780;28;20142;-55
2022/05/16 03:18:43;;;;;;;28.02;21.80;;;13.30;99.90;;;;;;5046684;28;20068;-55
2022/05/16 03:21:11;;;;;;;32.95;21.58;;;13.30;99.90;;;;;;5045496;28;20163;-56
2022/05/16 03:23:37;;;;;;;29.77;21.98;;;13.30;99.90;;;;;;5046414;28;20380;-55
2022/05/16 03:26:04;;;;;;;26.13;20.02;;;13.30;99.90;;;;;;5038372;28;20697;-54
2022/05/16 03:28:31;;;;;;;35.85;22.50;;;13.30;99.90;;;;;;5045279;28;20744;-56
2022/05/16 03:30:59;;;;;;;33.30;21.80;;;13.30;99.90;;;;;;5046356;28;20140;-56
2022/05/16 03:33:26;;;;;;;31.55;23.35;;;13.30;99.90;;;;;;5045935;28;20049;-54
2022/05/16 03:35:56;;;;;;;30.60;22.90;;;13.30;99.90;;;;;;5046426;28;20144;-55
2022/05/16 03:41:11;;;;;;;32.40;21.92;;;13.20;99.90;;;;;;5044759;28;20119;-56
2022/05/16 03:43:39;;;;;;;27.20;21.13;;;13.20;99.90;;;;;;5046239;28;20048;-56
2022/05/16 03:46:06;;;;;;;33.63;23.30;;;13.10;99.90;;;;;;5046327;28;20555;-57
2022/05/16 03:48:33;;;;;;;29.23;22.25;;;13.10;99.90;;;;;;5045673;28;20455;-55
2022/05/16 03:51:00;;;;;;;30.20;23.92;;;13.10;99.90;;;;;;5046548;28;20128;-55
2022/05/16 03:53:27;;;;;;;34.13;22.08;;;13.10;99.90;;;;;;5045833;28;20641;-55
2022/05/16 03:55:54;;;;;;;31.70;22.05;;;13.10;99.90;;;;;;5038518;28;20169;-55
2022/05/16 03:58:21;;;;;;;37.92;23.00;;;13.10;99.90;;;;;;5045989;28;20334;-53
2022/05/16 04:00:48;;;;;;;31.30;21.67;;;13.10;99.90;;;;;;5042936;28;20037;-57
2022/05/16 04:03:15;;;;;;;31.25;20.90;;;13.10;99.90;;;;;;5036980;28;20076;-55
2022/05/16 04:05:41;;;;;;;34.58;22.55;;;13.10;99.90;;;;;;5042078;28;20140;-54
2022/05/16 04:08:09;;;;;;;35.15;23.65;;;13.00;99.90;;;;;;5046017;28;20536;-52
2022/05/16 04:10:36;;;;;;;34.03;23.58;;;13.00;99.90;;;;;;5046260;28;20128;-53
2022/05/16 04:13:02;;;;;;;32.08;22.85;;;13.00;99.90;;;;;;5045786;28;20147;-54
2022/05/16 04:15:29;;;;;;;33.13;22.58;;;13.00;99.90;;;;;;5046515;28;20264;-58
2022/05/16 04:17:56;;;;;;;36.75;23.75;;;13.00;99.90;;;;;;5046782;28;20083;-55
2022/05/16 04:20:23;;;;;;;35.38;23.50;;;12.90;99.90;;;;;;5047181;28;20055;-55
2022/05/16 04:22:49;;;;;;;32.65;21.50;;;12.90;99.90;;;;;;5047289;28;20045;-53
2022/05/16 04:25:17;;;;;;;37.58;23.95;;;12.90;99.90;;;;;;5046128;28;20091;-55
2022/05/16 04:27:50;;;;;;;42.00;23.77;;;12.90;99.90;;;;;;5040313;28;20045;-56
2022/05/16 04:30:17;;;;;;;37.45;23.27;;;12.90;99.90;;;;;;5047113;28;20087;-55
2022/05/16 04:32:44;;;;;;;32.80;22.50;;;12.90;99.90;;;;;;5047093;28;20073;-55
2022/05/16 04:35:11;;;;;;;33.63;22.75;;;12.90;99.90;;;;;;5043639;28;20553;-55
2022/05/16 04:37:38;;;;;;;30.65;22.58;;;12.90;99.90;;;;;;5047122;28;20095;-54
2022/05/16 04:40:06;;;;;;;29.00;21.67;;;12.90;99.90;;;;;;5047072;28;20044;-54
2022/05/16 04:42:42;;;;;;;34.42;24.42;;;13.00;99.90;;;;;;5046745;28;20127;-56
2022/05/16 04:45:24;;;;;;;44.08;26.67;;;13.00;99.90;;;;;;5046903;28;20389;-53
2022/05/16 04:47:56;;;;;;;33.55;22.23;;;13.10;99.90;;;;;;5047356;28;20041;-51
2022/05/16 04:50:25;;;;;;;39.15;23.77;;;13.10;99.90;;;;;;5046256;28;20084;-55
2022/05/16 04:52:51;;;;;;;43.30;27.52;;;13.10;99.90;;;;;;5045859;28;20120;-52
2022/05/16 04:55:19;;;;;;;34.05;23.83;;;13.10;99.90;;;;;;5046696;28;20080;-54
2022/05/16 04:57:46;;;;;;;42.15;25.08;;;13.10;99.90;;;;;;5047005;28;20140;-52
2022/05/16 05:00:14;;;;;;;31.63;23.25;;;13.10;99.90;;;;;;5046670;28;20122;-53
2022/05/16 05:02:40;;;;;;;41.38;25.05;;;13.10;99.90;;;;;;5046079;28;20179;-54
2022/05/16 05:05:07;;;;;;;39.55;24.55;;;13.10;99.90;;;;;;5046438;28;20490;-53
2022/05/16 05:07:37;;;;;;;37.55;23.48;;;13.20;99.90;;;;;;5045608;28;20107;-52
2022/05/16 05:15:40;;;;;;;31.42;21.80;;;13.30;99.90;;;;;;5042910;28;20124;-52
2022/05/16 05:18:07;;;;;;;37.72;24.52;;;13.40;99.90;;;;;;5046766;28;20132;-55
2022/05/16 05:20:34;;;;;;;34.70;22.65;;;13.40;99.90;;;;;;5046425;28;20045;-55
2022/05/16 05:23:02;;;;;;;30.58;20.67;;;13.50;99.90;;;;;;5046980;28;20133;-55
2022/05/16 05:25:29;;;;;;;37.10;23.88;;;13.50;99.90;;;;;;5046121;28;20136;-56
2022/05/16 05:27:55;;;;;;;35.15;22.77;;;13.60;99.90;;;;;;5049086;28;20200;-55
2022/05/16 05:30:25;;;;;;;29.83;21.13;;;13.60;99.90;;;;;;5048682;28;20132;-53
2022/05/16 05:32:52;;;;;;;28.92;20.77;;;13.60;99.90;;;;;;5050496;28;20712;-55
2022/05/16 05:35:19;;;;;;;33.08;21.92;;;13.70;99.90;;;;;;5050136;28;20079;-54
2022/05/16 05:37:47;;;;;;;34.15;21.73;;;13.70;99.90;;;;;;5048787;28;20138;-55
2022/05/16 05:40:14;;;;;;;30.23;19.58;;;13.80;99.90;;;;;;5050178;28;20128;-56
2022/05/16 05:42:40;;;;;;;32.28;21.70;;;13.90;99.90;;;;;;5050015;28;20136;-55
2022/05/16 05:45:09;;;;;;;26.95;19.90;;;13.90;99.90;;;;;;5049791;28;20049;-54
2022/05/16 05:47:36;;;;;;;27.95;19.33;;;14.00;99.90;;;;;;5045856;28;20530;-52
2022/05/16 05:50:05;;;;;;;21.83;15.80;;;14.10;99.90;;;;;;5049941;28;20073;-49
2022/05/16 05:52:32;;;;;;;19.17;14.40;;;14.20;99.90;;;;;;5049891;28;20041;-53
2022/05/16 05:54:58;;;;;;;27.52;15.32;;;14.30;99.90;;;;;;5049803;28;20061;-55
2022/05/16 05:57:25;;;;;;;22.27;15.50;;;14.40;99.90;;;;;;5049107;28;20055;-55
2022/05/16 05:59:58;;;;;;;22.35;12.43;;;14.50;99.90;;;;;;5049414;28;20053;-56
2022/05/16 06:02:25;;;;;;;24.67;12.57;;;14.50;99.90;;;;;;5049345;28;20076;-57
2022/05/16 06:04:52;;;;;;;29.10;12.15;;;14.60;99.90;;;;;;5048311;28;20091;-52
2022/05/16 06:07:19;;;;;;;22.08;9.90;;;14.70;99.90;;;;;;5048644;28;20049;-56
2022/05/16 06:09:45;;;;;;;30.75;8.98;;;14.80;99.90;;;;;;5049211;28;20103;-52
2022/05/16 06:12:12;;;;;;;21.42;9.82;;;14.90;99.90;;;;;;5048510;28;20144;-57
2022/05/16 06:14:44;;;;;;;22.15;8.48;;;15.00;99.90;;;;;;5049322;28;20139;-56
2022/05/16 06:17:12;;;;;;;23.40;9.10;;;15.00;99.90;;;;;;5031561;28;20076;-56
2022/05/16 06:19:39;;;;;;;25.27;10.02;;;15.10;99.90;;;;;;5048922;28;20041;-54
2022/05/16 06:22:05;;;;;;;25.77;10.10;;;15.10;99.90;;;;;;5048790;28;20222;-55
2022/05/16 06:27:17;;;;;;;25.45;9.70;;;15.20;99.90;;;;;;5048109;28;20711;-54
2022/05/16 06:29:44;;;;;;;24.25;10.10;;;15.20;99.90;;;;;;5048766;28;20135;-53
2022/05/16 06:32:11;;;;;;;28.95;9.95;;;15.20;99.90;;;;;;5048566;28;20124;-56
2022/05/16 06:34:37;;;;;;;26.67;10.57;;;15.30;99.90;;;;;;5048869;28;20052;-54
2022/05/16 06:37:04;;;;;;;24.27;11.65;;;15.20;99.90;;;;;;5046367;28;20817;-53
2022/05/16 06:39:31;;;;;;;20.23;10.73;;;15.30;99.90;;;;;;5039818;28;20120;-51
2022/05/16 06:41:58;;;;;;;23.40;10.98;;;15.30;99.90;;;;;;5046009;28;20568;-54
2022/05/16 06:44:26;;;;;;;27.85;11.10;;;15.30;99.90;;;;;;5046120;28;20136;-52
2022/05/16 06:46:58;;;;;;;19.45;10.43;;;15.30;99.90;;;;;;5045004;28;20052;-56
2022/05/16 06:49:25;;;;;;;25.45;11.27;;;15.20;99.90;;;;;;5047167;28;20068;-55
2022/05/16 06:51:52;;;;;;;27.45;12.88;;;15.20;99.90;;;;;;5045497;28;20053;-55
2022/05/16 06:54:19;;;;;;;25.75;12.38;;;15.20;99.90;;;;;;5045634;28;20127;-55
2022/05/16 06:56:46;;;;;;;21.30;11.82;;;15.20;99.90;;;;;;5045033;28;20049;-58
2022/05/16 06:59:12;;;;;;;25.73;11.65;;;15.30;99.90;;;;;;5044700;28;20132;-56
2022/05/16 07:01:39;;;;;;;21.48;11.68;;;15.20;99.90;;;;;;5044882;28;20048;-57
2022/05/16 07:04:06;;;;;;;25.30;12.88;;;15.30;99.90;;;;;;5045327;28;20033;-56
2022/05/16 07:06:33;;;;;;;24.60;12.68;;;15.30;99.90;;;;;;5046237;28;20131;-57
2022/05/16 07:09:00;;;;;;;25.75;11.32;;;15.30;99.90;;;;;;5046035;28;20081;-56
2022/05/16 07:11:26;;;;;;;21.17;11.68;;;15.30;99.90;;;;;;5046182;28;20125;-55
2022/05/16 07:13:53;;;;;;;21.42;11.57;;;15.40;99.90;;;;;;5045570;28;20053;-52
2022/05/16 07:16:20;;;;;;;26.05;11.70;;;15.50;99.90;;;;;;5047051;28;20099;-55
2022/05/16 07:18:47;;;;;;;20.88;10.20;;;15.60;99.90;;;;;;5047314;28;20052;-56
2022/05/16 07:21:13;;;;;;;22.25;11.70;;;15.70;99.90;;;;;;5047629;28;20159;-53
2022/05/16 07:23:40;;;;;;;26.42;11.48;;;15.80;99.90;;;;;;5047237;28;20449;-56
2022/05/16 07:28:52;;;;;;;22.10;8.50;;;16.00;99.90;;;;;;5047220;28;20779;-56
2022/05/16 07:31:19;;;;;;;14.25;7.93;;;16.10;99.90;;;;;;5045444;28;20124;-56
2022/05/16 07:33:46;;;;;;;24.88;8.07;;;16.20;99.90;;;;;;5046796;28;20484;-55
2022/05/16 07:36:13;;;;;;;14.50;6.40;;;16.30;99.90;;;;;;5047463;28;20049;-57
2022/05/16 07:38:40;;;;;;;16.33;6.95;;;16.40;99.90;;;;;;5046010;28;20048;-54
2022/05/16 07:41:08;;;;;;;12.98;5.30;;;16.50;99.90;;;;;;5046472;28;20408;-56
2022/05/16 07:43:35;;;;;;;13.02;6.10;;;16.60;99.90;;;;;;5046980;28;20107;-56
2022/05/16 07:46:03;;;;;;;16.67;6.35;;;16.60;99.90;;;;;;5046472;28;20102;-55
2022/05/16 07:48:31;;;;;;;17.70;6.20;;;16.70;99.90;;;;;;5046912;28;20045;-55
2022/05/16 07:50:58;;;;;;;12.18;6.20;;;16.80;99.90;;;;;;5046592;28;20156;-54
2022/05/16 07:53:25;;;;;;;31.30;8.32;;;16.80;99.90;;;;;;5046803;28;20119;-57
2022/05/16 07:55:54;;;;;;;10.65;5.38;;;16.80;99.90;;;;;;5045843;28;20124;-53
2022/05/16 07:58:22;;;;;;;13.25;6.03;;;16.80;99.90;;;;;;5047013;28;20053;-55
2022/05/16 08:00:53;;;;;;;17.02;5.88;;;16.80;99.90;;;;;;5046544;28;20085;-54
2022/05/16 08:03:21;;;;;;;12.45;6.15;;;16.90;99.90;;;;;;5046972;28;20530;-56
2022/05/16 08:05:48;;;;;;;12.63;4.53;;;16.80;99.90;;;;;;5046299;28;20049;-56
2022/05/16 08:11:01;;;;;;;10.32;3.88;;;16.90;99.90;;;;;;5046957;28;20120;-57
2022/05/16 08:13:28;;;;;;;14.60;5.25;;;16.90;99.90;;;;;;5046985;28;20084;-56
2022/05/16 08:15:54;;;;;;;9.68;4.97;;;16.90;99.90;;;;;;5045317;28;20045;-55
2022/05/16 08:18:21;;;;;;;18.17;6.82;;;16.90;99.90;;;;;;5045199;28;20091;-55
2022/05/16 08:20:50;;;;;;;15.65;8.10;;;16.90;99.90;;;;;;5044991;28;20073;-55
2022/05/16 08:23:21;;;;;;;19.33;7.80;;;17.00;99.90;;;;;;5044398;28;20091;-55
2022/05/16 08:25:48;;;;;;;18.58;8.20;;;17.00;99.90;;;;;;5037025;28;20145;-51
2022/05/16 08:28:15;;;;;;;20.45;6.57;;;17.00;99.90;;;;;;5045338;28;20049;-59
2022/05/16 08:30:42;;;;;;;16.55;6.65;;;17.00;99.90;;;;;;5046575;28;20045;-56
2022/05/16 08:33:09;;;;;;;19.50;8.60;;;17.10;99.90;;;;;;5047294;28;20053;-54
2022/05/16 08:35:36;;;;;;;16.67;5.97;;;17.20;99.90;;;;;;5046678;28;20053;-54
2022/05/16 08:40:59;;;;;;;13.40;5.20;;;17.50;99.90;;;;;;5046208;28;20084;-57
2022/05/16 08:43:38;;;;;;;11.70;5.47;;;17.60;99.90;;;;;;5042879;28;20515;-56
2022/05/16 08:46:11;;;;;;;37.38;7.65;;;17.70;99.90;;;;;;5039069;28;20077;-55
2022/05/16 08:48:40;;;;;;;12.98;4.75;;;17.90;99.90;;;;;;5043257;28;20734;-55
2022/05/16 08:51:14;;;;;;;14.48;4.90;;;17.90;99.90;;;;;;5045480;28;20098;-55
2022/05/16 08:53:51;;;;;;;;;;;17.90;99.90;;;;;;5045564;28;20049;-56
2022/05/16 08:56:22;;;;;;;9.77;4.40;;;17.90;99.90;;;;;;5036391;28;20011;-56
2022/05/16 08:59:00;;;;;;;6.97;3.92;;;18.00;99.90;;;;;;5046596;28;20073;-54
2022/05/16 09:01:37;;;;;;;9.23;4.45;;;18.00;99.90;;;;;;5038470;28;20083;-56
2022/05/16 09:04:16;;;;;;;12.65;4.30;;;18.00;99.90;;;;;;5048681;28;20535;-54
2022/05/16 09:06:48;;;;;;;9.48;4.07;;;18.00;99.90;;;;;;5033915;28;20049;-52
2022/05/16 09:09:19;;;;;;;6.75;4.18;;;18.00;99.90;;;;;;5048593;28;20068;-55
2022/05/16 09:12:02;;;;;;;11.98;4.03;;;18.10;99.90;;;;;;5049047;28;20044;-56
2022/05/16 09:14:52;;;;;;;15.20;4.43;;;18.20;99.90;;;;;;5047428;28;20706;-54
2022/05/16 09:17:19;;;;;;;8.10;3.70;;;18.20;99.90;;;;;;5048735;28;20144;-53
2022/05/16 09:20:13;;;;;;;12.32;4.18;;;18.30;99.90;;;;;;5047475;28;20083;-56
2022/05/16 09:22:58;;;;;;;9.63;3.58;;;18.20;99.90;;;;;;5034109;28;20634;-53
2022/05/16 09:25:32;;;;;;;12.13;4.00;;;18.20;99.90;;;;;;5044785;28;20056;-55
2022/05/16 09:30:45;;;;;;;7.30;4.25;;;18.20;99.90;;;;;;5046664;28;20004;-55
2022/05/16 09:33:17;;;;;;;10.85;4.07;;;18.20;99.90;;;;;;5042065;28;20128;-54
2022/05/16 09:35:59;;;;;;;8.40;3.30;;;18.10;99.90;;;;;;5049345;28;20123;-55
2022/05/16 09:38:25;;;;;;;20.15;4.78;;;18.10;99.90;;;;;;5043240;28;20128;-57
2022/05/16 09:40:58;;;;;;;12.85;3.50;;;18.10;99.90;;;;;;5050308;28;20120;-53
2022/05/16 09:43:26;;;;;;;12.73;3.60;;;18.20;99.90;;;;;;5042176;28;20088;-54
2022/05/16 09:46:11;;;;;;;8.30;4.07;;;18.40;99.90;;;;;;5049393;28;20057;-53
2022/05/16 09:48:38;;;;;;;13.07;2.70;;;18.50;99.90;;;;;;5048928;28;20077;-51
2022/05/16 09:51:07;;;;;;;8.65;2.70;;;18.50;99.90;;;;;;5049788;28;20056;-54
2022/05/16 09:53:42;;;;;;;8.52;3.40;;;18.40;99.90;;;;;;5048812;28;20988;-55
2022/05/16 09:56:30;;;;;;;9.20;2.85;;;18.40;99.90;;;;;;5047967;28;20055;-50
2022/05/16 09:59:01;;;;;;;8.75;2.15;;;18.50;99.90;;;;;;5049392;28;20159;-53
2022/05/16 10:01:35;;;;;;;6.40;1.85;;;18.50;99.90;;;;;;5049589;28;20095;-54
2022/05/16 10:04:16;;;;;;;11.00;2.40;;;18.60;99.90;;;;;;5042317;28;20040;-54
2022/05/16 10:06:57;;;;;;;9.95;2.95;;;18.70;99.90;;;;;;5046121;28;20045;-54
2022/05/16 10:09:36;;;;;;;9.00;2.50;;;18.90;99.90;;;;;;5043445;28;20072;-55
2022/05/16 10:12:06;;;;;;;6.25;2.38;;;19.10;99.90;;;;;;5047870;28;20092;-57
2022/05/16 10:14:33;;;;;;;3.65;1.95;;;19.30;99.90;;;;;;5049434;28;20076;-54
2022/05/16 10:17:02;;;;;;;8.20;2.00;;;19.40;99.90;;;;;;5048287;28;20048;-55
2022/05/16 10:19:31;;;;;;;8.00;2.28;;;19.30;99.90;;;;;;5048938;28;20136;-55
2022/05/16 10:22:03;;;;;;;10.32;2.45;;;19.10;99.90;;;;;;5031895;28;20559;-56
2022/05/16 10:24:32;;;;;;;7.22;1.73;;;19.10;99.90;;;;;;5047815;28;20053;-55
2022/05/16 10:27:07;;;;;;;9.18;2.13;;;19.00;99.90;;;;;;5049091;28;20131;-57
2022/05/16 10:29:40;;;;;;;5.30;1.48;;;18.90;99.90;;;;;;5046596;28;20131;-49
2022/05/16 10:35:07;;;;;;;11.73;3.95;;;18.90;99.90;;;;;;5040617;28;20092;-55
2022/05/16 10:37:36;;;;;;;8.80;1.80;;;19.00;99.90;;;;;;5048011;28;20068;-56
2022/05/16 10:40:30;;;;;;;9.32;2.50;;;19.00;99.90;;;;;;5031603;28;20080;-54
2022/05/16 10:43:29;;;;;;;7.50;1.80;;;19.20;99.90;;;;;;5047330;28;20140;-56
2022/05/16 10:46:24;;;;;;;14.30;2.83;;;19.20;99.90;;;;;;5048378;28;20114;-55
2022/05/16 10:49:06;;;;;;;8.45;2.15;;;19.20;99.90;;;;;;5047873;28;20072;-54
2022/05/16 10:52:00;;;;;;;8.50;2.60;;;19.30;99.90;;;;;;5047031;28;20095;-51
2022/05/16 10:54:28;;;;;;;6.75;2.63;;;19.20;99.90;;;;;;5029083;28;20079;-56
2022/05/16 10:57:04;;;;;;;14.35;4.47;;;19.20;99.90;;;;;;5048072;28;20084;-52
2022/05/16 10:59:59;;;;;;;11.85;3.03;;;19.20;99.90;;;;;;5045868;28;20064;-58
2022/05/16 11:02:39;;;;;;;12.88;3.75;;;19.00;99.90;;;;;;5048219;28;20425;-60
2022/05/16 11:05:47;;;;;;;11.00;3.28;;;19.00;99.90;;;;;;5044165;28;20111;-56
2022/05/16 11:08:17;;;;;;;10.90;3.58;;;18.90;99.90;;;;;;5047960;28;20088;-56
2022/05/16 11:10:58;;;;;;;9.85;4.00;;;18.90;99.90;;;;;;5047880;28;20080;-53
2022/05/16 11:13:38;;;;;;;14.88;4.10;;;18.80;99.90;;;;;;5045223;28;20056;-55
2022/05/16 11:16:15;;;;;;;12.55;4.72;;;19.00;99.90;;;;;;5048197;28;20488;-57
2022/05/16 11:18:43;;;;;;;11.70;3.72;;;19.10;99.90;;;;;;5044810;28;20049;-54
2022/05/16 11:21:34;;;;;;;10.52;4.82;;;19.20;99.90;;;;;;5048388;28;20045;-57
2022/05/16 11:24:17;;;;;;;12.40;3.53;;;19.30;99.90;;;;;;5047123;28;20056;-55
2022/05/16 11:26:50;;;;;;;13.60;4.30;;;19.40;99.90;;;;;;5047392;28;20136;-55
2022/05/16 11:29:28;;;;;;;9.80;3.28;;;19.50;99.90;;;;;;5044789;28;20052;-54
2022/05/16 11:31:54;;;;;;;15.73;4.40;;;19.50;99.90;;;;;;5044066;28;20086;-55
2022/05/16 11:34:26;;;;;;;10.95;3.45;;;19.70;99.90;;;;;;5047939;28;20518;-54
2022/05/16 11:36:59;;;;;;;12.13;3.63;;;19.90;99.90;;;;;;5046496;28;20136;-56
2022/05/16 11:39:40;;;;;;;13.70;4.43;;;20.00;99.90;;;;;;5044259;28;20706;-56
2022/05/16 11:42:16;;;;;;;9.15;3.50;;;20.10;99.90;;;;;;5029786;28;20136;-52
2022/05/16 11:45:14;;;;;;;13.13;4.80;;;20.10;99.90;;;;;;5040394;28;20036;-54
2022/05/16 11:47:59;;;;;;;18.42;3.85;;;20.00;99.90;;;;;;5039665;28;20049;-56
2022/05/16 11:51:08;;;;;;;10.27;3.10;;;19.90;99.90;;;;;;5041155;28;20045;-55
2022/05/16 11:53:47;;;;;;;12.35;3.35;;;19.90;99.90;;;;;;5045683;28;20124;-55
2022/05/16 12:02:08;;;;;;;11.45;3.00;;;20.30;99.90;;;;;;5041001;28;20521;-54
2022/05/16 12:04:36;;;;;;;9.82;3.10;;;20.50;99.90;;;;;;5046916;28;20456;-55
2022/05/16 12:07:04;;;;;;;11.55;2.38;;;20.60;99.90;;;;;;5045873;28;20057;-55
2022/05/16 12:09:31;;;;;;;12.07;2.80;;;20.70;99.90;;;;;;5029271;28;20148;-54
2022/05/16 12:12:11;;;;;;;8.25;2.25;;;20.80;99.90;;;;;;5046812;28;20538;-57
2022/05/16 12:14:39;;;;;;;11.00;2.85;;;20.80;99.10;;;;;;5046444;28;20521;-56
2022/05/16 12:17:14;;;;;;;13.30;2.53;;;20.80;99.90;;;;;;5045553;28;20484;-54
2022/05/16 12:19:42;;;;;;;7.63;2.30;;;20.90;99.90;;;;;;5046484;28;20044;-55
2022/05/16 12:22:29;;;;;;;11.68;2.45;;;20.90;99.90;;;;;;5040178;28;20399;-56
2022/05/16 12:24:56;;;;;;;10.50;2.50;;;20.90;99.90;;;;;;5046662;28;20562;-57
2022/05/16 12:27:31;;;;;;;11.70;2.90;;;21.00;99.90;;;;;;5046419;28;20053;-54
2022/05/16 12:30:01;;;;;;;8.50;2.22;;;21.10;99.50;;;;;;5045939;28;20076;-57
2022/05/16 12:32:31;;;;;;;6.43;3.13;;;21.10;99.90;;;;;;5044653;28;20136;-54
2022/05/16 12:35:08;;;;;;;11.40;2.22;;;21.10;99.90;;;;;;5040351;28;20492;-57
2022/05/16 12:37:35;;;;;;;7.68;2.05;;;21.00;99.60;;;;;;5046179;28;20068;-57
2022/05/16 12:40:03;;;;;;;17.33;3.13;;;21.00;99.70;;;;;;5046138;28;20124;-56
2022/05/16 12:42:59;;;;;;;10.80;3.05;;;21.20;99.90;;;;;;5044842;28;20041;-54
2022/05/16 12:45:53;;;;;;;13.10;3.05;;;21.40;98.40;;;;;;5039935;28;20690;-55
2022/05/16 12:48:41;;;;;;;10.00;3.55;;;21.40;99.50;;;;;;5045851;28;20128;-54
2022/05/16 12:51:15;;;;;;;12.48;2.70;;;21.60;99.10;;;;;;4787473;28;10000624;-58
2022/05/16 12:54:01;;;;;;;9.35;2.40;;;21.70;98.10;;;;;;5042087;28;20280;-57
2022/05/16 12:56:33;;;;;;;10.93;2.72;;;21.60;98.00;;;;;;5041055;28;20110;-57
2022/05/16 12:59:03;;;;;;;11.23;2.42;;;21.60;99.20;;;;;;5038189;28;20087;-58
2022/05/16 13:01:44;;;;;;;8.73;2.53;;;21.50;97.90;;;;;;5025212;28;20041;-56
2022/05/16 13:04:50;;;;;;;6.20;2.05;;;21.50;98.40;;;;;;5042098;28;20088;-56
2022/05/16 13:07:26;;;;;;;9.40;2.53;;;21.60;98.40;;;;;;5039146;28;20055;-55
2022/05/16 13:09:52;;;;;;;10.32;2.30;;;21.70;99.30;;;;;;5035970;28;20111;-54
2022/05/16 13:12:44;;;;;;;11.57;2.88;;;21.70;99.40;;;;;;5043479;28;20048;-54
2022/05/16 13:15:17;;;;;;;9.63;2.72;;;21.70;97.80;;;;;;5036771;28;20126;-56
2022/05/16 13:17:49;;;;;;;10.50;2.30;;;21.80;98.20;;;;;;5043658;28;20129;-55
2022/05/16 13:20:17;;;;;;;11.23;2.20;;;21.90;98.60;;;;;;5041563;28;20053;-54
2022/05/16 13:22:48;;;;;;;8.52;2.70;;;21.90;97.20;;;;;;5039073;28;20045;-55
2022/05/16 13:25:23;;;;;;;16.70;3.42;;;22.00;98.60;;;;;;5043557;28;20057;-57
2022/05/16 13:30:40;;;;;;;8.00;2.33;;;22.20;97.20;;;;;;5037830;28;20053;-55
2022/05/16 13:33:24;;;;;;;4.95;1.25;;;22.00;97.90;;;;;;5042024;28;20140;-55